Terminal Aerodrome Forecast
Issued by NWS Austin/San Antonio, TX

Home | Current Version | Previous Version | Text Only | Print | Product List | Glossary On
Versions: 1 2 3 4 5 6 7 8 9 10 11 12 13 14 15 16 17 18 19 20 21 22 23 24 25 26
000
FTUS44 KEWX 181738
TAFAUS
TAF
KAUS 181738Z 1818/1924 36005KT P6SM BKN012 OVC035
     FM182000 VRB03KT P6SM BKN025
     FM182200 18004KT P6SM BKN040
      TEMPO 1900/1904 VRB15G25KT 3SM TSRA SCT010 BKN040CB
     FM190500 20005KT P6SM BKN012
     FM191600 22012KT P6SM SCT035
     FM192100 27012KT P6SM FEW070=

USA.gov is the U.S. government's official web portal to all federal, state and local government web resources and services.